Time;durP1;ratioP1;P1;durP2;ratioP2;P2;SDS_P1;SDS_P2;PMS_P1;PMS_P2;Temp;Humidity;BMP_temperature;BMP_pressure;BME280_temperature;BME280_humidity;BME280_pressure;Samples;Min_cycle;Max_cycle;Signal;HPM_P1;HPM_P2
2021/05/06 00:02:19;;;;;;;0.47;0.10;;;;;;;-142.37;100.00;59669.53;5032340;28;20025;-58
2021/05/06 00:05:07;;;;;;;0.55;0.10;;;;;;;-142.37;100.00;59669.53;5032361;28;20018;-58
2021/05/06 00:29:53;;;;;;;0.10;0.03;;;;;;;-142.37;100.00;59669.53;5032696;28;20095;-58
2021/05/06 00:32:03;;;;;;;1.95;0.20;;;;;;;-142.37;100.00;59669.53;5032192;28;20027;-57
2021/05/06 00:34:28;;;;;;;0.47;0.10;;;;;;;-142.37;100.00;59669.53;5031856;28;20029;-58
2021/05/06 00:36:56;;;;;;;0.43;0.15;;;;;;;-142.37;100.00;59669.53;5050979;28;20063;-57
2021/05/06 00:39:45;;;;;;;0.25;0.05;;;;;;;-142.37;100.00;59669.53;5051789;28;20023;-58
2021/05/06 01:06:11;;;;;;;0.65;0.10;;;;;;;-142.37;100.00;59669.53;5055169;28;20051;-58
2021/05/06 01:08:42;;;;;;;0.20;0.10;;;;;;;-142.37;100.00;59669.53;5055604;28;20155;-57
2021/05/06 01:11:16;;;;;;;0.20;0.10;;;;;;;-142.37;100.00;59669.53;5055157;28;20031;-58
2021/05/06 01:13:43;;;;;;;0.10;0.10;;;;;;;-142.37;100.00;59669.53;5054995;28;20021;-58
2021/05/06 01:16:09;;;;;;;0.10;0.10;;;;;;;-142.37;100.00;59669.53;5054945;28;20531;-58
2021/05/06 01:18:34;;;;;;;0.32;0.10;;;;;;;-142.37;100.00;59669.53;5054770;28;20113;-58
2021/05/06 01:21:01;;;;;;;0.20;0.00;;;;;;;-142.37;100.00;59669.53;5054805;28;20063;-58
2021/05/06 01:23:28;;;;;;;0.20;0.20;;;;;;;-142.37;100.00;59669.53;5054712;28;20025;-58
2021/05/06 01:25:58;;;;;;;0.35;0.20;;;;;;;-142.37;100.00;59669.53;5054824;28;20021;-57
2021/05/06 01:28:33;;;;;;;0.95;0.13;;;;;;;-142.37;100.00;59669.53;5054568;28;20033;-58
2021/05/06 01:31:09;;;;;;;0.38;0.10;;;;;;;-142.37;100.00;59669.53;5054865;28;20029;-58
2021/05/06 01:33:41;;;;;;;0.75;0.60;;;;;;;-142.37;100.00;59669.53;5054452;28;20105;-57
2021/05/06 01:36:11;;;;;;;0.70;0.10;;;;;;;-142.37;100.00;59669.53;5054966;28;20021;-58
2021/05/06 01:38:56;;;;;;;0.15;0.10;;;;;;;-142.37;100.00;59669.53;5054457;28;20035;-57
2021/05/06 01:41:41;;;;;;;0.20;0.10;;;;;;;-142.37;100.00;59669.53;5054413;28;20025;-58
2021/05/06 01:44:15;;;;;;;0.63;0.15;;;;;;;-142.37;100.00;59669.53;5054432;28;20388;-58
2021/05/06 02:00:11;;;;;;;0.10;0.10;;;;;;;-142.37;100.00;59669.53;5054393;28;20032;-58
2021/05/06 02:02:36;;;;;;;0.10;0.10;;;;;;;-142.37;100.00;59669.53;5053764;28;20029;-58
2021/05/06 02:05:03;;;;;;;0.98;0.28;;;;;;;-142.37;100.00;59669.53;5054154;28;20036;-57
2021/05/06 02:07:29;;;;;;;0.10;0.00;;;;;;;-142.37;100.00;59669.53;5054055;28;20040;-59
2021/05/06 02:09:54;;;;;;;1.38;0.10;;;;;;;-142.37;100.00;59669.53;5054313;28;20020;-57
2021/05/06 02:12:20;;;;;;;0.17;0.15;;;;;;;-142.37;100.00;59669.53;5053734;28;20107;-58
2021/05/06 02:14:54;;;;;;;0.20;0.10;;;;;;;-142.37;100.00;59669.53;5053909;28;20066;-58
2021/05/06 02:17:19;;;;;;;0.60;0.30;;;;;;;-142.37;100.00;59669.53;5053727;28;20063;-58
2021/05/06 02:19:48;;;;;;;0.65;0.30;;;;;;;-142.37;100.00;59669.53;5053662;28;20033;-58
2021/05/06 02:22:14;;;;;;;0.28;0.10;;;;;;;-142.37;100.00;59669.53;5053600;28;20480;-58
2021/05/06 02:24:40;;;;;;;1.00;0.25;;;;;;;-142.37;100.00;59669.53;5053592;28;20104;-58
2021/05/06 02:27:05;;;;;;;0.63;0.10;;;;;;;-142.37;100.00;59669.53;5053675;28;20022;-58
2021/05/06 02:29:30;;;;;;;0.85;0.05;;;;;;;-142.37;100.00;59669.53;5053471;28;20396;-58
2021/05/06 02:31:56;;;;;;;0.30;0.10;;;;;;;-142.37;100.00;59669.53;5053624;28;20032;-58
2021/05/06 02:34:21;;;;;;;0.50;0.28;;;;;;;-142.37;100.00;59669.53;5053261;28;20041;-58
2021/05/06 02:36:46;;;;;;;0.30;0.17;;;;;;;-142.37;100.00;59669.53;5053511;28;20016;-58
2021/05/06 02:39:12;;;;;;;0.17;0.10;;;;;;;-142.37;100.00;59669.53;5053436;28;20047;-58
2021/05/06 02:41:37;;;;;;;0.43;0.20;;;;;;;-142.37;100.00;59669.53;5053293;28;20031;-58
2021/05/06 02:44:03;;;;;;;0.10;0.10;;;;;;;-142.37;100.00;59669.53;5053523;28;20024;-58
2021/05/06 02:46:28;;;;;;;0.30;0.00;;;;;;;-142.37;100.00;59669.53;5052963;28;20032;-58
2021/05/06 02:48:53;;;;;;;0.73;0.20;;;;;;;-142.37;100.00;59669.53;5053307;28;20491;-57
2021/05/06 02:51:23;;;;;;;0.45;0.22;;;;;;;-142.37;100.00;59669.53;5053126;28;20031;-59
2021/05/06 02:53:53;;;;;;;0.20;0.15;;;;;;;-142.37;100.00;59669.53;5053179;28;20040;-57
2021/05/06 02:56:33;;;;;;;0.20;0.13;;;;;;;-142.37;100.00;59669.53;5052949;28;20044;-58
2021/05/06 02:59:17;;;;;;;0.98;0.15;;;;;;;-142.37;100.00;59669.53;5053046;28;20108;-58
2021/05/06 03:04:26;;;;;;;0.60;0.30;;;;;;;-142.37;100.00;59669.53;5052829;28;20040;-58
2021/05/06 03:07:01;;;;;;;0.15;0.10;;;;;;;-142.37;100.00;59669.53;5052898;28;20029;-58
2021/05/06 03:14:53;;;;;;;0.35;0.08;;;;;;;-142.37;100.00;59669.53;5052413;28;20033;-58
2021/05/06 03:22:52;;;;;;;0.10;0.00;;;;;;;-142.37;100.00;59669.53;5052794;28;20032;-58
2021/05/06 03:25:19;;;;;;;0.95;0.10;;;;;;;-142.37;100.00;59669.53;5052687;28;20053;-58
2021/05/06 03:27:53;;;;;;;0.15;0.05;;;;;;;-142.37;100.00;59669.53;5052637;28;20597;-58
2021/05/06 03:33:00;;;;;;;0.68;0.00;;;;;;;-142.37;100.00;59669.53;5052799;28;20047;-58
2021/05/06 03:43:56;;;;;;;0.22;0.17;;;;;;;-142.37;100.00;59669.53;5052614;28;20119;-57
2021/05/06 04:14:24;;;;;;;0.52;0.32;;;;;;;-142.37;100.00;59669.53;5052360;28;20039;-58
2021/05/06 04:19:07;;;;;;;0.08;0.08;;;;;;;-142.37;100.00;59669.53;5052504;28;20468;-58
2021/05/06 04:37:31;;;;;;;0.98;0.20;;;;;;;-142.37;100.00;59669.53;5055595;28;20052;-58
2021/05/06 04:40:04;;;;;;;0.30;0.20;;;;;;;-142.37;100.00;59669.53;5055746;28;20053;-58
2021/05/06 04:56:20;;;;;;;0.65;0.43;;;;;;;-142.37;100.00;59669.53;5055617;28;20051;-58
2021/05/06 04:59:03;;;;;;;;;;;;;;;-142.37;100.00;59669.53;5055785;28;20043;-57
2021/05/06 05:07:07;;;;;;;0.43;0.30;;;;;;;-142.37;100.00;59669.53;5053752;28;20488;-58
2021/05/06 05:20:38;;;;;;;0.22;0.10;;;;;;;-142.37;100.00;59669.53;5054755;28;19915;-58
2021/05/06 05:25:24;;;;;;;0.32;0.10;;;;;;;-142.37;100.00;59669.53;5054805;28;20533;-58
2021/05/06 05:27:49;;;;;;;0.65;0.20;;;;;;;-142.37;100.00;59669.53;5053479;28;20033;-58
2021/05/06 05:30:16;;;;;;;0.82;0.35;;;;;;;-142.37;100.00;59669.53;5054715;28;20028;-57
2021/05/06 05:32:41;;;;;;;0.43;0.20;;;;;;;-142.37;100.00;59669.53;5054141;28;20579;-56
2021/05/06 05:35:15;;;;;;;0.25;0.10;;;;;;;-142.37;100.00;59669.53;5053934;28;20021;-55
2021/05/06 05:37:46;;;;;;;0.68;0.20;;;;;;;-142.37;100.00;59669.53;5052968;28;20455;-56
2021/05/06 05:40:31;;;;;;;0.25;0.10;;;;;;;-142.37;100.00;59669.53;5054070;28;20067;-56
2021/05/06 05:43:14;;;;;;;0.30;0.30;;;;;;;-142.37;100.00;59669.53;5054237;28;20112;-55
2021/05/06 05:46:16;;;;;;;1.40;0.35;;;;;;;-142.37;100.00;59669.53;5054323;28;20020;-57
2021/05/06 05:56:40;;;;;;;0.47;0.38;;;;;;;-142.37;100.00;59669.53;5053413;28;20040;-55
2021/05/06 05:59:05;;;;;;;0.32;0.20;;;;;;;-142.37;100.00;59669.53;5053620;28;20043;-56
2021/05/06 06:01:31;;;;;;;0.70;0.20;;;;;;;-142.37;100.00;59669.53;5053365;28;20025;-56
2021/05/06 06:03:56;;;;;;;0.40;0.30;;;;;;;-142.37;100.00;59669.53;5053858;28;20033;-56
2021/05/06 06:06:21;;;;;;;0.40;0.30;;;;;;;-142.37;100.00;59669.53;5056742;28;20020;-56
2021/05/06 06:08:48;;;;;;;0.90;0.50;;;;;;;-142.37;100.00;59669.53;5053204;28;20070;-56
2021/05/06 06:11:14;;;;;;;2.17;1.23;;;;;;;-142.37;100.00;59669.53;5055406;28;20029;-58
2021/05/06 06:13:40;;;;;;;3.30;2.08;;;;;;;-142.37;100.00;59669.53;5053888;28;20036;-56
2021/05/06 06:18:45;;;;;;;3.38;2.65;;;;;;;-142.37;100.00;59669.53;5070379;28;20734;-57
2021/05/06 06:23:48;;;;;;;6.50;5.75;;;;;;;-142.37;100.00;59669.53;5052574;28;20384;-57
2021/05/06 06:26:14;;;;;;;9.55;6.97;;;;;;;-142.37;100.00;59669.53;5055302;28;20526;-56
2021/05/06 06:28:42;;;;;;;8.68;6.93;;;;;;;-142.37;100.00;59669.53;5054425;28;20021;-57
2021/05/06 06:31:21;;;;;;;8.57;7.15;;;;;;;-142.37;100.00;59669.53;5051074;28;20024;-57
2021/05/06 06:33:47;;;;;;;8.00;7.18;;;;;;;-142.37;100.00;59669.53;5050791;28;20103;-56
2021/05/06 06:36:12;;;;;;;7.45;6.68;;;;;;;-142.37;100.00;59669.53;5053686;28;20028;-57
2021/05/06 06:38:38;;;;;;;6.35;5.75;;;;;;;-142.37;100.00;59669.53;5051026;28;20029;-56
2021/05/06 06:41:06;;;;;;;6.00;5.40;;;;;;;-142.37;100.00;59669.53;5050753;28;20072;-57
2021/05/06 06:43:32;;;;;;;5.53;5.03;;;;;;;-142.37;100.00;59669.53;5049310;28;20024;-56
2021/05/06 06:45:58;;;;;;;4.78;4.28;;;;;;;-142.37;100.00;59669.53;5050824;28;20021;-57
2021/05/06 06:48:24;;;;;;;4.50;4.10;;;;;;;-142.37;100.00;59669.53;5051001;28;20029;-57
2021/05/06 06:50:49;;;;;;;4.15;3.75;;;;;;;-142.37;100.00;59669.53;5050880;28;20023;-56
2021/05/06 06:53:16;;;;;;;3.85;3.40;;;;;;;-142.37;100.00;59669.53;5050249;28;20028;-57
2021/05/06 06:55:42;;;;;;;4.35;3.20;;;;;;;-142.37;100.00;59669.53;5051375;28;20056;-56
2021/05/06 06:58:15;;;;;;;2.95;2.67;;;;;;;-142.37;100.00;59669.53;5051863;28;20499;-56
2021/05/06 07:00:40;;;;;;;3.17;2.88;;;;;;;-142.37;100.00;59669.53;5051788;28;20013;-57
2021/05/06 07:03:06;;;;;;;2.40;2.20;;;;;;;-142.37;100.00;59669.53;5053308;28;20032;-56
2021/05/06 07:05:33;;;;;;;1.80;1.70;;;;;;;-142.37;100.00;59669.53;5051250;28;20024;-56
2021/05/06 07:08:25;;;;;;;2.50;2.30;;;;;;;-142.37;100.00;59669.53;5050214;28;20033;-57
2021/05/06 07:10:52;;;;;;;2.40;1.70;;;;;;;-142.37;100.00;59669.53;5050986;28;20021;-56
2021/05/06 07:13:18;;;;;;;1.60;1.50;;;;;;;-142.37;100.00;59669.53;5051373;28;20021;-57
2021/05/06 07:16:01;;;;;;;1.75;1.52;;;;;;;-142.37;100.00;59669.53;5051405;28;20028;-56
2021/05/06 07:18:27;;;;;;;1.50;1.17;;;;;;;-142.37;100.00;59669.53;5050074;28;20101;-56
2021/05/06 07:20:54;;;;;;;1.60;1.50;;;;;;;-142.37;100.00;59669.53;5051697;28;20041;-57
2021/05/06 07:23:21;;;;;;;1.60;1.08;;;;;;;-142.37;100.00;59669.53;5052454;28;20033;-58
2021/05/06 07:25:48;;;;;;;1.08;0.98;;;;;;;-142.37;100.00;59669.53;5052999;28;20116;-57
2021/05/06 07:28:19;;;;;;;1.55;0.98;;;;;;;-142.37;100.00;59669.53;5053457;28;20078;-56
2021/05/06 07:30:51;;;;;;;1.25;1.15;;;;;;;-142.37;100.00;59669.53;5055903;28;20027;-56
2021/05/06 07:33:17;;;;;;;1.60;0.98;;;;;;;-142.37;100.00;59669.53;5051948;28;20100;-57
2021/05/06 07:35:43;;;;;;;0.77;0.70;;;;;;;-142.37;100.00;59669.53;5049911;28;20105;-56
2021/05/06 07:38:10;;;;;;;0.47;0.47;;;;;;;-142.37;100.00;59669.53;5046943;28;20040;-56
2021/05/06 07:40:36;;;;;;;0.57;0.57;;;;;;;-142.37;100.00;59669.53;5047941;28;20021;-55
2021/05/06 07:43:02;;;;;;;1.15;0.52;;;;;;;-142.37;100.00;59669.53;5048553;28;20040;-55
2021/05/06 07:45:30;;;;;;;0.63;0.63;;;;;;;-142.37;100.00;59669.53;5050101;28;20029;-54
2021/05/06 07:47:55;;;;;;;0.40;0.40;;;;;;;-142.37;100.00;59669.53;5052400;28;20028;-55
2021/05/06 07:50:21;;;;;;;1.85;0.40;;;;;;;-142.37;100.00;59669.53;5050585;28;20333;-56
2021/05/06 07:52:49;;;;;;;0.60;0.43;;;;;;;-142.37;100.00;59669.53;5063571;28;20043;-57
2021/05/06 07:55:14;;;;;;;0.30;0.25;;;;;;;-142.37;100.00;59669.53;5053028;28;20471;-56
2021/05/06 07:57:40;;;;;;;0.22;0.22;;;;;;;-142.37;100.00;59669.53;5053284;28;20017;-57
2021/05/06 08:00:11;;;;;;;0.75;0.30;;;;;;;-142.37;100.00;59669.53;5071613;28;20375;-58
2021/05/06 08:02:37;;;;;;;0.43;0.20;;;;;;;-142.37;100.00;59669.53;5072638;28;20039;-57
2021/05/06 08:05:04;;;;;;;0.22;0.20;;;;;;;-142.37;100.00;59669.53;5076077;28;20021;-57
2021/05/06 08:07:29;;;;;;;0.57;0.30;;;;;;;-142.37;100.00;59669.53;5056067;28;20510;-57
2021/05/06 08:09:54;;;;;;;0.63;0.40;;;;;;;-142.37;100.00;59669.53;5056374;28;20033;-56
2021/05/06 08:12:21;;;;;;;1.13;0.30;;;;;;;-142.37;100.00;59669.53;5056644;28;20032;-57
2021/05/06 08:14:47;;;;;;;0.45;0.20;;;;;;;-142.37;100.00;59669.53;5055106;28;20387;-57
2021/05/06 08:17:12;;;;;;;0.20;0.20;;;;;;;-142.37;100.00;59669.53;5061213;28;20514;-57
2021/05/06 08:19:40;;;;;;;0.73;0.20;;;;;;;-142.37;100.00;59669.53;5055759;28;20029;-58
2021/05/06 08:22:05;;;;;;;1.30;0.77;;;;;;;-142.37;100.00;59669.53;5064996;28;20025;-57
2021/05/06 08:24:30;;;;;;;0.10;0.10;;;;;;;-142.37;100.00;59669.53;5074328;28;20143;-57
2021/05/06 08:26:55;;;;;;;0.25;0.20;;;;;;;-142.37;100.00;59669.53;5044720;28;20056;-56
2021/05/06 08:29:22;;;;;;;0.20;0.10;;;;;;;-142.37;100.00;59669.53;5054289;28;20029;-57
2021/05/06 08:31:48;;;;;;;0.80;0.40;;;;;;;-142.37;100.00;59669.53;5054229;28;20028;-57
2021/05/06 08:34:13;;;;;;;0.65;0.20;;;;;;;-142.37;100.00;59669.53;5054771;28;20380;-57
2021/05/06 08:36:38;;;;;;;0.68;0.10;;;;;;;-142.37;100.00;59669.53;5056490;28;20017;-57
2021/05/06 08:39:05;;;;;;;0.45;0.20;;;;;;;-142.37;100.00;59669.53;5058375;28;20096;-58
2021/05/06 08:41:31;;;;;;;0.68;0.20;;;;;;;-142.37;100.00;59669.53;5052670;28;20491;-57
2021/05/06 08:43:59;;;;;;;0.20;0.20;;;;;;;-142.37;100.00;59669.53;5054300;28;20029;-57
2021/05/06 08:46:34;;;;;;;0.60;0.17;;;;;;;-142.37;100.00;59669.53;5054382;28;20021;-57
2021/05/06 08:49:04;;;;;;;0.30;0.20;;;;;;;-142.37;100.00;59669.53;5051213;28;20388;-57
2021/05/06 08:51:30;;;;;;;0.63;0.20;;;;;;;-142.37;100.00;59669.53;5050238;28;20029;-57
2021/05/06 08:53:56;;;;;;;0.28;0.10;;;;;;;-142.37;100.00;59669.53;5053878;28;20029;-56
2021/05/06 08:56:21;;;;;;;0.50;0.30;;;;;;;-142.37;100.00;59669.53;5053632;28;20044;-57
2021/05/06 08:58:47;;;;;;;0.28;0.22;;;;;;;-142.37;100.00;59669.53;5053095;28;20092;-57
2021/05/06 09:01:12;;;;;;;0.70;0.20;;;;;;;-142.37;100.00;59669.53;5053509;28;20040;-57
2021/05/06 09:03:38;;;;;;;0.30;0.20;;;;;;;-142.37;100.00;59669.53;5052670;28;20421;-57
2021/05/06 09:06:12;;;;;;;0.20;0.13;;;;;;;-142.37;100.00;59669.53;5051455;28;20049;-58
2021/05/06 09:08:40;;;;;;;0.20;0.15;;;;;;;-142.37;100.00;59669.53;5052739;28;20024;-58
2021/05/06 09:11:06;;;;;;;0.60;0.10;;;;;;;-142.37;100.00;59669.53;5047555;28;20108;-57
2021/05/06 09:13:32;;;;;;;1.52;0.30;;;;;;;-142.37;100.00;59669.53;5050948;28;20100;-58
2021/05/06 09:15:58;;;;;;;1.23;0.20;;;;;;;-142.37;100.00;59669.53;5047585;28;20033;-58
2021/05/06 09:18:43;;;;;;;0.82;0.30;;;;;;;-142.37;100.00;59669.53;5051461;28;20032;-59
2021/05/06 09:21:30;;;;;;;0.20;0.20;;;;;;;-142.37;100.00;59669.53;5049644;28;20095;-58
2021/05/06 09:24:13;;;;;;;0.10;0.10;;;;;;;-142.37;100.00;59669.53;5050265;28;20052;-57
2021/05/06 09:26:41;;;;;;;0.93;0.10;;;;;;;-142.37;100.00;59669.53;5050921;28;20059;-59
2021/05/06 09:29:09;;;;;;;0.30;0.17;;;;;;;-142.37;100.00;59669.53;5051829;28;20094;-58
2021/05/06 09:31:39;;;;;;;0.10;0.10;;;;;;;-142.37;100.00;59669.53;5053219;28;20503;-58
2021/05/06 09:34:08;;;;;;;0.40;0.25;;;;;;;-142.37;100.00;59669.53;5053465;28;20033;-59
2021/05/06 09:36:35;;;;;;;0.03;0.00;;;;;;;-142.37;100.00;59669.53;5052467;28;20021;-57
2021/05/06 09:39:00;;;;;;;1.20;0.08;;;;;;;-142.37;100.00;59669.53;5053386;28;20032;-57
2021/05/06 09:41:34;;;;;;;0.28;0.28;;;;;;;-142.37;100.00;59669.53;5050048;28;20037;-57
2021/05/06 09:44:14;;;;;;;1.92;0.47;;;;;;;-142.37;100.00;59669.53;5044193;28;20434;-57
2021/05/06 09:46:55;;;;;;;0.20;0.13;;;;;;;-142.37;100.00;59669.53;5053771;28;20479;-58
2021/05/06 09:49:22;;;;;;;0.22;0.20;;;;;;;-142.37;100.00;59669.53;5053493;28;20029;-57
2021/05/06 09:51:58;;;;;;;0.63;0.28;;;;;;;-142.37;100.00;59669.53;5052167;28;20048;-57
2021/05/06 09:54:23;;;;;;;0.25;0.17;;;;;;;-142.37;100.00;59669.53;5061987;28;20103;-57
2021/05/06 09:56:57;;;;;;;0.55;0.20;;;;;;;-142.37;100.00;59669.53;5057627;28;20044;-58
2021/05/06 09:59:27;;;;;;;0.50;0.10;;;;;;;-142.37;100.00;59669.53;5050610;28;20497;-57
2021/05/06 10:01:53;;;;;;;0.55;0.20;;;;;;;-142.37;100.00;59669.53;5051053;28;20028;-57
2021/05/06 10:04:24;;;;;;;0.20;0.20;;;;;;;-142.37;100.00;59669.53;5049702;28;20404;-58
2021/05/06 10:07:13;;;;;;;0.30;0.10;;;;;;;-142.37;100.00;59669.53;5053543;28;20029;-57
2021/05/06 10:09:49;;;;;;;1.85;0.57;;;;;;;-142.37;100.00;59669.53;5052373;28;20029;-58
2021/05/06 10:12:15;;;;;;;0.40;0.15;;;;;;;-142.37;100.00;59669.53;5051751;28;20163;-58
2021/05/06 10:14:41;;;;;;;0.30;0.17;;;;;;;-142.37;100.00;59669.53;5053025;28;20404;-57
2021/05/06 10:17:07;;;;;;;0.38;0.10;;;;;;;-142.37;100.00;59669.53;5049768;28;20119;-57
2021/05/06 10:19:32;;;;;;;0.73;0.10;;;;;;;-142.37;100.00;59669.53;5061614;23;20144;-57
2021/05/06 10:21:58;;;;;;;0.43;0.25;;;;;;;-142.37;100.00;59669.53;5073098;28;20066;-58
2021/05/06 10:24:23;;;;;;;0.22;0.20;;;;;;;-142.37;100.00;59669.53;5069235;28;20384;-57
2021/05/06 10:26:49;;;;;;;0.68;0.10;;;;;;;-142.37;100.00;59669.53;5068616;28;20029;-57
2021/05/06 10:29:17;;;;;;;0.22;0.10;;;;;;;-142.37;100.00;59669.53;5062108;28;20049;-58
2021/05/06 10:31:44;;;;;;;0.40;0.13;;;;;;;-142.37;100.00;59669.53;5072785;28;20059;-57
2021/05/06 10:34:10;;;;;;;0.20;0.10;;;;;;;-142.37;100.00;59669.53;5070244;28;20032;-57
2021/05/06 10:36:35;;;;;;;0.38;0.20;;;;;;;-142.37;100.00;59669.53;5058820;28;20021;-58
2021/05/06 10:39:09;;;;;;;0.15;0.10;;;;;;;-142.37;100.00;59669.53;5071231;28;20245;-57
2021/05/06 10:41:35;;;;;;;0.40;0.10;;;;;;;-142.37;100.00;59669.53;5069700;28;20024;-58
2021/05/06 10:44:08;;;;;;;0.00;0.00;;;;;;;-142.37;100.00;59669.53;5063315;28;20028;-57
2021/05/06 10:46:46;;;;;;;0.40;0.20;;;;;;;-142.37;100.00;59669.53;5062642;28;20021;-57
2021/05/06 10:49:12;;;;;;;0.55;0.20;;;;;;;-142.37;100.00;59669.53;5063468;28;20246;-58
2021/05/06 10:51:44;;;;;;;1.00;0.13;;;;;;;-142.37;100.00;59669.53;5073171;28;20032;-58
2021/05/06 10:54:29;;;;;;;1.30;0.30;;;;;;;-142.37;100.00;59669.53;5071047;28;20118;-58
2021/05/06 10:57:18;;;;;;;0.28;0.10;;;;;;;-142.37;100.00;59669.53;5070327;28;20386;-57
2021/05/06 10:59:45;;;;;;;0.17;0.15;;;;;;;-142.37;100.00;59669.53;5048457;28;20033;-58
2021/05/06 11:02:31;;;;;;;0.50;0.20;;;;;;;-142.37;100.00;59669.53;5044799;28;20285;-58
2021/05/06 11:05:10;;;;;;;0.65;0.20;;;;;;;-142.37;100.00;59669.53;5044877;28;20037;-58
2021/05/06 11:07:35;;;;;;;1.70;0.30;;;;;;;-142.37;100.00;59669.53;5036725;28;20087;-58
2021/05/06 11:10:02;;;;;;;1.58;0.32;;;;;;;-142.37;100.00;59669.53;5036789;28;20481;-59
2021/05/06 11:12:29;;;;;;;1.98;0.20;;;;;;;-142.37;100.00;59669.53;5039690;28;20357;-60
2021/05/06 11:15:04;;;;;;;1.05;0.20;;;;;;;-142.37;100.00;59669.53;5031525;28;20068;-59
2021/05/06 11:17:32;;;;;;;0.28;0.10;;;;;;;-142.37;100.00;59669.53;5044980;28;20039;-58
2021/05/06 11:19:57;;;;;;;0.28;0.17;;;;;;;-142.37;100.00;59669.53;5037096;28;20523;-60
2021/05/06 11:22:53;;;;;;;0.85;0.38;;;;;;;-142.37;100.00;59669.53;5034673;28;20247;-58
2021/05/06 11:25:31;;;;;;;0.88;0.47;;;;;;;-142.37;100.00;59669.53;5040754;28;20062;-59
2021/05/06 11:27:58;;;;;;;2.10;0.20;;;;;;;-142.37;100.00;59669.53;5035106;28;20051;-57
2021/05/06 11:30:35;;;;;;;1.17;0.20;;;;;;;-142.37;100.00;59669.53;5035503;28;20115;-58
2021/05/06 11:33:18;;;;;;;1.63;0.10;;;;;;;-142.37;100.00;59669.53;5040494;28;20194;-58
2021/05/06 11:36:17;;;;;;;1.73;0.30;;;;;;;-142.37;100.00;59669.53;5022975;28;20113;-58
2021/05/06 11:38:51;;;;;;;0.10;0.10;;;;;;;-142.37;100.00;59669.53;5069809;28;20062;-58
2021/05/06 11:41:22;;;;;;;;;;;;;;;-142.37;100.00;59669.53;5071944;28;20502;-58
2021/05/06 11:43:57;;;;;;;0.22;0.10;;;;;;;-142.37;100.00;59669.53;5069157;28;19909;-57
2021/05/06 11:46:28;;;;;;;0.73;0.38;;;;;;;-142.37;100.00;59669.53;5068429;28;20021;-57
2021/05/06 11:48:59;;;;;;;0.90;0.28;;;;;;;-142.37;100.00;59669.53;5070634;28;20468;-57
2021/05/06 11:51:36;;;;;;;2.17;0.17;;;;;;;-142.37;100.00;59669.53;5054063;28;20033;-57
2021/05/06 11:54:15;;;;;;;0.70;0.30;;;;;;;-142.37;100.00;59669.53;5063484;28;20032;-57
2021/05/06 11:56:43;;;;;;;0.43;0.40;;;;;;;-142.37;100.00;59669.53;5051581;28;20045;-57
2021/05/06 11:59:16;;;;;;;0.35;0.22;;;;;;;-142.37;100.00;59669.53;5052388;28;20024;-58
2021/05/06 12:01:42;;;;;;;0.60;0.40;;;;;;;-142.37;100.00;59669.53;5037497;28;20113;-56
2021/05/06 12:04:21;;;;;;;1.00;0.38;;;;;;;-142.37;100.00;59669.53;5031430;28;20096;-57
2021/05/06 12:06:46;;;;;;;0.75;0.30;;;;;;;-142.37;100.00;59669.53;5039217;28;20376;-58
2021/05/06 12:09:21;;;;;;;0.40;0.20;;;;;;;-142.37;100.00;59669.53;5045016;28;20031;-57
2021/05/06 12:11:46;;;;;;;0.10;0.10;;;;;;;-142.37;100.00;59669.53;5050261;28;20494;-58
2021/05/06 12:14:12;;;;;;;0.70;0.20;;;;;;;-142.37;100.00;59669.53;5033959;28;20029;-57
2021/05/06 12:16:37;;;;;;;0.30;0.20;;;;;;;-142.37;100.00;59669.53;5045770;28;20044;-57
2021/05/06 12:19:05;;;;;;;0.85;0.30;;;;;;;-142.37;100.00;59669.53;5050264;28;20063;-57
2021/05/06 12:21:32;;;;;;;0.20;0.15;;;;;;;-142.37;100.00;59669.53;5045010;28;20124;-57
2021/05/06 12:23:58;;;;;;;0.25;0.15;;;;;;;-142.37;100.00;59669.53;5033048;28;20065;-58
2021/05/06 12:26:23;;;;;;;0.65;0.20;;;;;;;-142.37;100.00;59669.53;5036518;28;20052;-58
2021/05/06 12:28:49;;;;;;;0.30;0.20;;;;;;;-142.37;100.00;59669.53;5031566;28;20024;-57
2021/05/06 12:31:14;;;;;;;0.38;0.15;;;;;;;-142.37;100.00;59669.53;5043246;28;20029;-57
2021/05/06 12:33:39;;;;;;;0.40;0.28;;;;;;;-142.37;100.00;59669.53;5048999;28;20120;-57
2021/05/06 12:36:05;;;;;;;0.80;0.25;;;;;;;-142.37;100.00;59669.53;5049685;28;20035;-57
2021/05/06 12:38:31;;;;;;;1.10;0.20;;;;;;;-142.37;100.00;59669.53;5047835;28;20091;-57
2021/05/06 12:40:57;;;;;;;0.10;0.10;;;;;;;-142.37;100.00;59669.53;5050477;28;20036;-57
2021/05/06 12:43:32;;;;;;;0.20;0.10;;;;;;;-142.37;100.00;59669.53;5051777;28;20033;-57
2021/05/06 12:46:03;;;;;;;0.40;0.20;;;;;;;-142.37;100.00;59669.53;5051561;28;20029;-57
2021/05/06 12:48:52;;;;;;;0.43;0.10;;;;;;;-142.37;100.00;59669.53;5051884;28;20028;-57
2021/05/06 12:51:19;;;;;;;0.55;0.10;;;;;;;-142.37;100.00;59669.53;5068295;28;20052;-58
2021/05/06 12:54:00;;;;;;;0.75;0.40;;;;;;;-142.37;100.00;59669.53;5055077;28;20408;-57
2021/05/06 12:56:29;;;;;;;0.90;0.08;;;;;;;-142.37;100.00;59669.53;5055342;28;20029;-57
2021/05/06 12:58:55;;;;;;;0.32;0.17;;;;;;;-142.37;100.00;59669.53;5055082;28;20035;-58
2021/05/06 13:01:31;;;;;;;0.40;0.20;;;;;;;-142.37;100.00;59669.53;5054732;28;20029;-58
2021/05/06 13:04:01;;;;;;;0.17;0.10;;;;;;;-142.37;100.00;59669.53;5055739;28;20040;-57
2021/05/06 13:06:33;;;;;;;0.47;0.10;;;;;;;-142.37;100.00;59669.53;5055011;28;20029;-59
2021/05/06 13:08:59;;;;;;;0.73;0.20;;;;;;;-142.37;100.00;59669.53;5054636;28;20477;-57
2021/05/06 13:11:26;;;;;;;1.38;0.10;;;;;;;-142.37;100.00;59669.53;5055047;28;20391;-58
2021/05/06 13:13:54;;;;;;;1.17;0.25;;;;;;;-142.37;100.00;59669.53;5055198;28;20082;-58
2021/05/06 13:16:51;;;;;;;0.28;0.17;;;;;;;-142.37;100.00;59669.53;5054707;28;20029;-57
2021/05/06 13:19:24;;;;;;;0.00;0.00;;;;;;;-142.37;100.00;59669.53;5054575;28;20066;-57
2021/05/06 13:21:52;;;;;;;0.32;0.20;;;;;;;-142.37;100.00;59669.53;5054632;28;20044;-57
2021/05/06 13:24:18;;;;;;;0.05;0.05;;;;;;;-142.37;100.00;59669.53;5049366;28;20033;-57
2021/05/06 13:26:46;;;;;;;0.35;0.20;;;;;;;-142.37;100.00;59669.53;5046100;28;20066;-57
2021/05/06 13:29:15;;;;;;;0.65;0.15;;;;;;;-142.37;100.00;59669.53;5052377;28;20028;-57
2021/05/06 13:31:42;;;;;;;0.25;0.17;;;;;;;-142.37;100.00;59669.53;5034145;28;20059;-56
2021/05/06 13:34:07;;;;;;;0.43;0.10;;;;;;;-142.37;100.00;59669.53;5033711;28;20071;-57
2021/05/06 13:36:33;;;;;;;0.73;0.20;;;;;;;-142.37;100.00;59669.53;5033646;28;20029;-57
2021/05/06 13:39:00;;;;;;;0.57;0.20;;;;;;;-142.37;100.00;59669.53;5034104;28;20601;-58
2021/05/06 13:41:34;;;;;;;0.30;0.10;;;;;;;-142.37;100.00;59669.53;5033974;28;20044;-57
2021/05/06 13:44:03;;;;;;;1.13;0.22;;;;;;;-142.37;100.00;59669.53;5050612;28;20017;-57
2021/05/06 13:46:33;;;;;;;0.20;0.10;;;;;;;-142.37;100.00;59669.53;5052233;28;20453;-57
2021/05/06 13:49:00;;;;;;;0.75;0.20;;;;;;;-142.37;100.00;59669.53;5050009;28;20407;-57
2021/05/06 13:51:26;;;;;;;0.63;0.20;;;;;;;-142.37;100.00;59669.53;5045340;28;20384;-57
2021/05/06 13:53:53;;;;;;;0.10;0.10;;;;;;;-142.37;100.00;59669.53;5043684;28;20040;-57
2021/05/06 13:56:19;;;;;;;0.60;0.30;;;;;;;-142.37;100.00;59669.53;5043851;28;20476;-57
2021/05/06 13:58:44;;;;;;;1.20;0.40;;;;;;;-142.37;100.00;59669.53;5038286;28;20034;-57
2021/05/06 14:01:12;;;;;;;0.35;0.17;;;;;;;-142.37;100.00;59669.53;5034976;28;20025;-57
2021/05/06 14:03:37;;;;;;;0.40;0.22;;;;;;;-142.37;100.00;59669.53;5047590;28;20648;-57
2021/05/06 14:06:03;;;;;;;0.30;0.15;;;;;;;-142.37;100.00;59669.53;5052467;28;20029;-57
2021/05/06 14:08:29;;;;;;;0.20;0.20;;;;;;;-142.37;100.00;59669.53;5050292;28;20099;-57
2021/05/06 14:10:55;;;;;;;0.35;0.25;;;;;;;-142.37;100.00;59669.53;5052537;28;20060;-57
2021/05/06 14:13:22;;;;;;;0.65;0.40;;;;;;;-142.37;100.00;59669.53;5052855;28;20524;-57
2021/05/06 14:15:48;;;;;;;0.20;0.10;;;;;;;-142.37;100.00;59669.53;5053810;28;20147;-57
2021/05/06 14:18:13;;;;;;;0.60;0.35;;;;;;;-142.37;100.00;59669.53;5052626;28;20100;-57